createdAt,value
2022-11-16T00:00:09.087Z,1186.2
2022-11-16T00:01:52.899Z,1182.3
2022-11-16T00:03:36.500Z,1176.8
2022-11-16T00:05:20.199Z,1170.3
2022-11-16T00:07:03.906Z,1163.3
2022-11-16T00:08:47.596Z,1154.1
2022-11-16T00:10:31.305Z,1146.7
2022-11-16T00:12:14.998Z,1138.2
2022-11-16T00:13:58.720Z,1133.8
2022-11-16T00:15:42.401Z,1129
2022-11-16T00:17:26.102Z,1124.7
2022-11-16T00:19:09.816Z,1120.3
2022-11-16T00:20:53.522Z,1117.6
2022-11-16T00:22:37.221Z,1114.1
2022-11-16T00:24:20.923Z,1109.8
2022-11-16T00:26:04.622Z,1103.6
2022-11-16T00:27:48.333Z,1098.9
2022-11-16T00:29:32.036Z,1094.7
2022-11-16T00:31:15.734Z,1087.1
2022-11-16T00:32:59.446Z,1085.8
2022-11-16T00:34:43.149Z,1079.7
2022-11-16T00:36:26.841Z,1076.2
2022-11-16T00:38:10.571Z,1071.7
2022-11-16T00:39:54.246Z,1066.8
2022-11-16T00:41:37.952Z,1064.5
2022-11-16T00:43:21.657Z,1061
2022-11-16T00:45:05.369Z,1054.2
2022-11-16T00:46:49.056Z,1046.5
2022-11-16T00:48:32.766Z,1043.6
2022-11-16T00:50:16.468Z,1040.9
2022-11-16T00:52:00.168Z,1039.4
2022-11-16T00:53:43.868Z,1035.7
2022-11-16T00:55:27.582Z,1034.6
2022-11-16T00:57:11.287Z,1028.6
2022-11-16T00:58:54.979Z,1023.7
2022-11-16T01:00:38.707Z,1016.3
2022-11-16T01:02:22.403Z,1008.9
2022-11-16T01:04:06.104Z,1004
2022-11-16T01:05:49.797Z,1002.9
2022-11-16T01:07:33.495Z,1001.2
2022-11-16T01:09:17.211Z,993.1
2022-11-16T01:11:00.908Z,986.8
2022-11-16T01:12:44.638Z,980.1
2022-11-16T01:14:28.310Z,977.3
2022-11-16T01:16:12.033Z,971.9
2022-11-16T01:17:55.718Z,965.9
2022-11-16T01:19:39.418Z,961.3
2022-11-16T01:21:23.122Z,958.2
2022-11-16T01:23:06.825Z,952.5
2022-11-16T01:24:50.530Z,947.8
2022-11-16T01:26:34.239Z,946.7
2022-11-16T01:28:17.945Z,943.3
2022-11-16T01:30:01.639Z,939.3
2022-11-16T01:31:45.333Z,937.4
2022-11-16T01:33:29.055Z,936.4
2022-11-16T01:35:12.753Z,934.8
2022-11-16T01:36:56.466Z,935.8
2022-11-16T01:38:40.153Z,932.8
2022-11-16T01:40:23.858Z,925
2022-11-16T01:42:07.572Z,921.6
2022-11-16T01:43:51.272Z,919.6
2022-11-16T01:45:34.982Z,916.9
2022-11-16T01:47:18.672Z,913.6
2022-11-16T01:49:02.372Z,909.6
2022-11-16T01:50:46.074Z,904
2022-11-16T01:52:29.761Z,904
2022-11-16T01:54:13.486Z,903.1
2022-11-16T01:55:57.168Z,901.6
2022-11-16T01:57:40.893Z,899.1
2022-11-16T01:59:24.566Z,896.9
2022-11-16T02:01:08.301Z,894.2
2022-11-16T02:02:51.986Z,891.6
2022-11-16T02:04:35.697Z,883.2
2022-11-16T02:06:19.362Z,879.7
2022-11-16T02:08:03.082Z,878.6
2022-11-16T02:09:46.778Z,879.7
2022-11-16T02:11:30.495Z,880.8
2022-11-16T02:13:14.196Z,879.2
2022-11-16T02:14:57.950Z,879.6
2022-11-16T02:16:41.602Z,876.5
2022-11-16T02:18:25.310Z,872.6
2022-11-16T02:20:08.993Z,870.2
2022-11-16T02:21:52.701Z,869.5
2022-11-16T02:23:36.411Z,864.9
2022-11-16T02:25:20.125Z,862
2022-11-16T02:27:03.821Z,857.9
2022-11-16T02:28:47.505Z,855.5
2022-11-16T02:30:31.216Z,856.7
2022-11-16T02:32:14.912Z,857.6
2022-11-16T02:33:58.623Z,854.9
2022-11-16T02:35:42.321Z,852.2
2022-11-16T02:37:26.013Z,848.3
2022-11-16T02:39:09.720Z,847
2022-11-16T02:40:53.423Z,846.8
2022-11-16T02:42:37.120Z,844.6
2022-11-16T02:44:20.808Z,844.8
2022-11-16T02:46:04.520Z,844.9
2022-11-16T02:47:48.228Z,845.5
2022-11-16T02:49:31.905Z,842.4
2022-11-16T02:51:15.613Z,843.1
2022-11-16T02:52:59.338Z,841.3
2022-11-16T02:54:43.025Z,839.5
2022-11-16T02:56:26.731Z,836
2022-11-16T02:58:10.423Z,832.8
2022-11-16T02:59:54.132Z,827.6
2022-11-16T03:01:37.846Z,824.9
2022-11-16T03:03:21.544Z,824.9
2022-11-16T03:05:05.235Z,824
2022-11-16T03:06:48.942Z,822.8
2022-11-16T03:08:32.646Z,819.7
2022-11-16T03:10:16.350Z,815.2
2022-11-16T03:12:00.077Z,813.4
2022-11-16T03:13:43.750Z,811.4
2022-11-16T03:15:27.447Z,811.5
2022-11-16T03:17:11.147Z,809.3
2022-11-16T03:18:54.848Z,806.7
2022-11-16T03:20:38.565Z,806.3
2022-11-16T03:22:22.251Z,806.3
2022-11-16T03:24:05.959Z,803.5
2022-11-16T03:25:49.641Z,798.4
2022-11-16T03:27:33.345Z,796
2022-11-16T03:29:17.059Z,794.2
2022-11-16T03:31:00.762Z,792.9
2022-11-16T03:32:44.455Z,794.7
2022-11-16T03:34:28.199Z,792.1
2022-11-16T03:36:11.860Z,791.5
2022-11-16T03:37:55.550Z,786
2022-11-16T03:39:39.268Z,782.6
2022-11-16T03:41:22.963Z,776.7
2022-11-16T03:43:06.661Z,776.7
2022-11-16T03:44:50.370Z,775.7
2022-11-16T03:46:34.059Z,773.7
2022-11-16T03:48:17.776Z,774
2022-11-16T03:51:45.179Z,770
2022-11-16T03:53:28.879Z,768.4
2022-11-16T03:55:12.580Z,766.2
2022-11-16T03:56:56.281Z,764.1
2022-11-16T03:58:39.982Z,759.9
2022-11-16T04:00:23.687Z,760.3
2022-11-16T04:02:07.375Z,758.4
2022-11-16T04:03:51.078Z,757.1
2022-11-16T04:05:34.790Z,752.5
2022-11-16T04:07:18.498Z,751.2
2022-11-16T04:09:02.166Z,751.6
2022-11-16T04:10:45.884Z,748.1
2022-11-16T04:12:29.591Z,746.9
2022-11-16T04:14:13.289Z,743.5
2022-11-16T04:15:56.987Z,740.3
2022-11-16T04:17:40.681Z,738.2
2022-11-16T04:19:24.372Z,737.7
2022-11-16T04:21:08.085Z,735.5
2022-11-16T04:22:51.766Z,738.8
2022-11-16T04:24:35.477Z,735.7
2022-11-16T04:26:19.186Z,734
2022-11-16T04:28:02.893Z,734
2022-11-16T04:29:46.581Z,734.3
2022-11-16T04:31:30.288Z,732.8
2022-11-16T04:33:14.004Z,731.5
2022-11-16T04:34:57.689Z,730
2022-11-16T04:36:41.413Z,731.1
2022-11-16T04:38:25.111Z,730.8
2022-11-16T04:40:08.801Z,730.5
2022-11-16T04:41:52.503Z,729.1
2022-11-16T04:43:36.219Z,724.1
2022-11-16T04:45:19.910Z,723
2022-11-16T04:47:03.610Z,722.5
2022-11-16T04:48:47.308Z,721.6
2022-11-16T04:50:31.010Z,719.4
2022-11-16T04:52:14.719Z,717.5
2022-11-16T04:53:58.420Z,716.1
2022-11-16T04:55:42.118Z,714.8
2022-11-16T04:57:25.816Z,713.5
2022-11-16T04:59:09.522Z,709.9
2022-11-16T05:00:53.226Z,706.7
2022-11-16T05:02:36.922Z,702.2
2022-11-16T05:04:20.622Z,702.1
2022-11-16T05:06:04.314Z,699.8
2022-11-16T05:07:48.046Z,695.2
2022-11-16T05:09:31.733Z,694
2022-11-16T05:11:15.428Z,696.1
2022-11-16T05:12:59.149Z,698.1
2022-11-16T05:14:42.855Z,695.4
2022-11-16T05:16:26.552Z,694.6
2022-11-16T05:18:10.255Z,695.2
2022-11-16T05:19:53.964Z,696.3
2022-11-16T05:21:37.631Z,698.9
2022-11-16T05:23:21.351Z,700.2
2022-11-16T05:25:05.031Z,698.8
2022-11-16T05:28:32.448Z,694.1
2022-11-16T05:30:16.160Z,699.8
2022-11-16T05:31:59.849Z,701.7
2022-11-16T05:33:43.555Z,700.3
2022-11-16T05:35:27.239Z,701.3
2022-11-16T05:37:10.950Z,696.4
2022-11-16T05:38:54.647Z,696
2022-11-16T05:40:38.346Z,694.2
2022-11-16T05:42:22.050Z,692.5
2022-11-16T05:44:05.759Z,689.1
2022-11-16T05:45:49.462Z,688.3
2022-11-16T05:47:33.158Z,688.6
2022-11-16T05:49:16.868Z,690.4
2022-11-16T05:51:00.571Z,693
2022-11-16T05:52:44.287Z,692.5
2022-11-16T05:54:27.986Z,691.4
2022-11-16T05:56:11.671Z,691.5
2022-11-16T05:57:55.407Z,693.3
2022-11-16T05:59:39.090Z,692.4
2022-11-16T06:01:22.794Z,693
2022-11-16T06:03:06.493Z,691.5
2022-11-16T06:10:01.280Z,688.7
2022-11-16T06:11:44.970Z,691.4
2022-11-16T06:13:28.676Z,694
2022-11-16T06:15:12.399Z,690.9
2022-11-16T06:20:23.492Z,680.6
2022-11-16T06:22:07.192Z,677.8
2022-11-16T06:25:34.616Z,676.2
2022-11-16T06:29:02.015Z,676.1
2022-11-16T06:30:45.706Z,675.3
2022-11-16T06:32:29.411Z,675
2022-11-16T06:34:13.097Z,676.8
2022-11-16T06:35:56.817Z,673.5
2022-11-16T06:37:40.518Z,672.7
2022-11-16T06:39:24.229Z,672.9
2022-11-16T06:41:07.911Z,670.6
2022-11-16T06:42:51.634Z,671.4
2022-11-16T06:44:35.312Z,670.9
2022-11-16T06:46:19.025Z,669.7
2022-11-16T06:48:02.723Z,671.3
2022-11-16T06:49:46.435Z,671.3
2022-11-16T06:51:30.129Z,670.1
2022-11-16T06:53:13.833Z,667.1
2022-11-16T06:54:57.534Z,667.4
2022-11-16T06:56:41.218Z,667.9
2022-11-16T06:58:24.924Z,666.5
2022-11-16T07:00:08.664Z,663.3
2022-11-16T07:01:52.350Z,662.5
2022-11-16T07:05:19.742Z,659.4
2022-11-16T07:07:03.458Z,656.1
2022-11-16T07:08:47.149Z,655.4
2022-11-16T07:10:30.867Z,655.8
2022-11-16T07:12:14.551Z,652.8
2022-11-16T07:13:58.265Z,653.3
2022-11-16T07:15:41.956Z,655.3
2022-11-16T07:17:25.698Z,653.4
2022-11-16T07:19:09.362Z,651.9
2022-11-16T07:20:53.070Z,653.7
2022-11-16T07:22:36.768Z,653.3
2022-11-16T07:24:20.482Z,650.2
2022-11-16T07:26:04.243Z,648.9
2022-11-16T07:27:47.853Z,647.7
2022-11-16T07:29:31.571Z,642.7
2022-11-16T07:31:15.266Z,642.4
2022-11-16T07:32:59.022Z,639.7
2022-11-16T07:34:42.664Z,643.6
2022-11-16T07:36:26.367Z,641.8
2022-11-16T07:38:10.085Z,640.9
2022-11-16T07:39:53.781Z,641.6
2022-11-16T07:41:37.480Z,641.3
2022-11-16T07:43:21.177Z,640
2022-11-16T07:45:04.892Z,640.4
2022-11-16T07:46:48.653Z,641.4
2022-11-16T07:48:32.283Z,644
2022-11-16T07:50:16.012Z,644.6
2022-11-16T07:51:59.697Z,645.1
2022-11-16T07:53:43.424Z,646.6
2022-11-16T07:55:27.089Z,647.5
2022-11-16T07:57:10.800Z,646.8
2022-11-16T07:58:54.494Z,649
2022-11-16T08:00:38.206Z,651.5
2022-11-16T08:02:21.906Z,652.9
2022-11-16T08:04:05.609Z,654.3
2022-11-16T08:05:49.310Z,654.8
2022-11-16T08:07:33.034Z,655
2022-11-16T08:09:16.807Z,651.1
2022-11-16T08:11:00.450Z,648.1
2022-11-16T08:12:44.116Z,648.7
2022-11-16T08:14:27.814Z,649.3
2022-11-16T08:16:11.521Z,649.2
2022-11-16T08:17:55.207Z,651.2
2022-11-16T08:19:38.912Z,651.1
2022-11-16T08:21:22.684Z,648.3
2022-11-16T08:23:06.412Z,646.3
2022-11-16T08:24:50.028Z,647.1
2022-11-16T08:26:33.707Z,647
2022-11-16T08:28:17.435Z,646.6
2022-11-16T08:30:01.118Z,647.4
2022-11-16T08:31:44.811Z,646.2
2022-11-16T08:33:29.075Z,651.3
2022-11-16T08:35:12.261Z,653.3
2022-11-16T08:36:55.927Z,654.3
2022-11-16T08:38:39.643Z,657.1
2022-11-16T08:40:23.332Z,660.4
2022-11-16T08:42:07.039Z,660.7
2022-11-16T08:43:50.737Z,662.1
2022-11-16T08:45:34.425Z,665.9
2022-11-16T08:47:18.137Z,666.5
2022-11-16T08:49:01.829Z,663.6
2022-11-16T08:50:45.530Z,661.8
2022-11-16T08:52:29.256Z,663.5
2022-11-16T08:54:12.934Z,663.7
2022-11-16T08:55:56.641Z,665.4
2022-11-16T08:57:40.345Z,665.9
2022-11-16T08:59:24.051Z,666.3
2022-11-16T09:01:07.742Z,670.1
2022-11-16T09:02:51.441Z,675.2
2022-11-16T09:04:35.146Z,673.9
2022-11-16T09:06:18.863Z,671.4
2022-11-16T09:08:02.560Z,670.6
2022-11-16T09:09:46.265Z,674.4
2022-11-16T09:11:29.974Z,678.6
2022-11-16T09:13:13.665Z,683.6
2022-11-16T09:14:57.354Z,685.9
2022-11-16T09:16:41.129Z,690.8
2022-11-16T09:18:24.753Z,696.5
2022-11-16T09:20:08.484Z,701.1
2022-11-16T09:21:52.159Z,706
2022-11-16T09:23:35.882Z,707.4
2022-11-16T09:25:19.566Z,709.1
2022-11-16T09:27:03.262Z,707.6
2022-11-16T09:28:46.965Z,711.8
2022-11-16T09:30:30.669Z,717
2022-11-16T09:32:14.385Z,720.5
2022-11-16T09:33:58.105Z,719.6
2022-11-16T09:35:41.789Z,722.2
2022-11-16T09:37:25.490Z,727.8
2022-11-16T09:39:09.179Z,731.9
2022-11-16T09:40:52.900Z,734.1
2022-11-16T09:42:36.585Z,735.8
2022-11-16T09:44:20.308Z,735.4
2022-11-16T09:46:04.001Z,741.3
2022-11-16T09:47:47.688Z,744
2022-11-16T09:49:31.392Z,746.7
2022-11-16T09:51:15.131Z,749.4
2022-11-16T09:52:58.784Z,752.1
2022-11-16T09:54:42.495Z,756.2
2022-11-16T09:56:26.186Z,756.7
2022-11-16T09:58:09.903Z,758.2
2022-11-16T09:59:53.594Z,758.8
2022-11-16T10:01:37.302Z,762.8
2022-11-16T10:03:20.999Z,764.5
2022-11-16T10:05:04.697Z,770.8
2022-11-16T10:06:48.415Z,767.6
2022-11-16T10:08:32.106Z,758.2
2022-11-16T10:10:15.825Z,752.8
2022-11-16T10:11:59.517Z,752.3
2022-11-16T10:13:43.204Z,752.9
2022-11-16T10:15:26.926Z,753.3
2022-11-16T10:17:10.628Z,754.2
2022-11-16T10:18:54.324Z,760
2022-11-16T10:20:38.020Z,761.4
2022-11-16T10:22:21.745Z,763.1
2022-11-16T10:24:05.436Z,766.7
2022-11-16T10:25:49.148Z,767.4
2022-11-16T10:27:32.837Z,771.3
2022-11-16T10:29:16.553Z,869
2022-11-16T10:31:00.401Z,894.7
2022-11-16T10:32:44.020Z,892
2022-11-16T10:34:27.682Z,889.2
2022-11-16T10:36:11.356Z,891.8
2022-11-16T10:37:55.076Z,897.4
2022-11-16T10:39:38.778Z,900.8
2022-11-16T10:41:22.473Z,898.5
2022-11-16T10:43:06.165Z,896.4
2022-11-16T10:44:49.875Z,899.3
2022-11-16T10:46:33.606Z,903
2022-11-16T10:48:17.279Z,906.8
2022-11-16T10:50:00.951Z,906.1
2022-11-16T10:51:44.649Z,907.6
2022-11-16T10:53:28.358Z,907.6
2022-11-16T10:55:12.065Z,912.2
2022-11-16T10:56:55.746Z,913.3
2022-11-16T10:58:39.448Z,913.8
2022-11-16T11:00:23.159Z,911.6
2022-11-16T11:02:06.867Z,912.3
2022-11-16T11:03:50.570Z,921.5
2022-11-16T11:05:34.268Z,923.9
2022-11-16T11:09:01.679Z,931.8
2022-11-16T11:10:45.420Z,935.1
2022-11-16T11:14:12.770Z,939.3
2022-11-16T11:15:56.482Z,940.1
2022-11-16T11:17:40.166Z,937.5
2022-11-16T11:21:07.576Z,950.8
2022-11-16T11:22:51.285Z,952.5
2022-11-16T11:24:34.996Z,956.8
2022-11-16T11:26:18.691Z,960.3
2022-11-16T11:28:02.388Z,958.7
2022-11-16T11:29:53.097Z,959.1
2022-11-16T11:31:29.801Z,954.3
2022-11-16T11:33:13.504Z,949.5
2022-11-16T11:34:57.190Z,944.6
2022-11-16T11:36:40.911Z,938.9
2022-11-16T11:38:24.619Z,935.2
2022-11-16T11:40:08.295Z,933.1
2022-11-16T11:41:52.004Z,929.5
2022-11-16T11:43:35.710Z,927.3
2022-11-16T11:45:19.415Z,924.2
2022-11-16T11:47:03.090Z,923.7
2022-11-16T11:50:30.521Z,921
2022-11-16T11:52:14.219Z,924.5
2022-11-16T11:53:57.907Z,926.3
2022-11-16T11:55:44.518Z,932.7
2022-11-16T11:57:25.316Z,982.8
2022-11-16T11:59:09.014Z,985
2022-11-16T12:00:52.704Z,978.1
2022-11-16T12:02:36.409Z,976.4
2022-11-16T12:04:20.118Z,972.4
2022-11-16T12:06:03.829Z,968.5
2022-11-16T12:07:47.522Z,967.7
2022-11-16T12:09:31.228Z,968
2022-11-16T12:11:14.916Z,969.1
2022-11-16T12:12:58.614Z,967.6
2022-11-16T12:14:42.317Z,967
2022-11-16T12:16:26.026Z,967.6
2022-11-16T12:18:09.724Z,969.4
2022-11-16T12:19:53.434Z,973.8
2022-11-16T12:21:37.129Z,985.1
2022-11-16T12:23:20.820Z,993
2022-11-16T12:25:04.524Z,1006.5
2022-11-16T12:26:48.237Z,1015
2022-11-16T12:28:31.931Z,1025.3
2022-11-16T12:30:15.636Z,1031.7
2022-11-16T12:31:59.355Z,1033
2022-11-16T12:33:43.037Z,1038.6
2022-11-16T12:35:26.738Z,1044.8
2022-11-16T12:37:10.442Z,1042.6
2022-11-16T12:38:54.151Z,1046.4
2022-11-16T12:40:37.842Z,1048.2
2022-11-16T12:42:21.545Z,1048.2
2022-11-16T12:44:05.252Z,1045.8
2022-11-16T12:45:48.932Z,1050.9
2022-11-16T12:47:32.647Z,1054.6
2022-11-16T12:49:16.348Z,1057.3
2022-11-16T12:51:00.073Z,1061.9
2022-11-16T12:52:43.751Z,1063.9
2022-11-16T12:54:27.443Z,1060.5
2022-11-16T12:56:11.143Z,1050
2022-11-16T12:57:54.852Z,1039.2
2022-11-16T12:59:38.540Z,1041.3
2022-11-16T13:01:22.252Z,1043.5
2022-11-16T13:03:05.952Z,1049.3
2022-11-16T13:04:49.678Z,1059.3
2022-11-16T13:06:33.346Z,1059.1
2022-11-16T13:08:17.093Z,1062.4
2022-11-16T13:10:00.763Z,1111.2
2022-11-16T13:11:44.461Z,1135.6
2022-11-16T13:13:28.173Z,1144.7
2022-11-16T13:15:11.862Z,1146.3
2022-11-16T13:16:55.574Z,1149.9
2022-11-16T13:18:39.267Z,1154
2022-11-16T13:20:22.968Z,1163.9
2022-11-16T13:22:06.678Z,1168.9
2022-11-16T13:23:50.358Z,1173.1
2022-11-16T13:25:34.068Z,1178.9
2022-11-16T13:27:17.773Z,1185.2
2022-11-16T13:29:01.491Z,1189.7
2022-11-16T13:30:45.166Z,1196.9
2022-11-16T13:32:28.861Z,1202.3
2022-11-16T13:34:12.577Z,1207.8
2022-11-16T13:35:56.294Z,1206.5
2022-11-16T13:37:39.965Z,1207.6
2022-11-16T13:39:23.687Z,1204.2
2022-11-16T13:41:07.378Z,1201
2022-11-16T13:42:51.089Z,1197
2022-11-16T13:44:34.783Z,1199.5
2022-11-16T13:46:18.508Z,1198.1
2022-11-16T13:48:02.194Z,1200.4
2022-11-16T13:49:45.915Z,1200.7
2022-11-16T13:51:29.594Z,1203.3
2022-11-16T13:53:13.278Z,1204.3
2022-11-16T13:54:56.990Z,1202.4
2022-11-16T13:56:40.760Z,1198.9
2022-11-16T13:58:24.425Z,1198.4
2022-11-16T14:00:08.134Z,1203.5
2022-11-16T14:01:51.804Z,1197.3
2022-11-16T14:03:35.632Z,1182.3
2022-11-16T14:05:19.211Z,1176.4
2022-11-16T14:07:02.910Z,1174
2022-11-16T14:08:46.616Z,1172.7
2022-11-16T14:10:30.304Z,1172.2
2022-11-16T14:12:14.002Z,1172.1
2022-11-16T14:13:57.703Z,1175.1
2022-11-16T14:15:41.408Z,1175.4
2022-11-16T14:17:25.116Z,1174.2
2022-11-16T14:19:08.494Z,1175.3
2022-11-16T14:20:52.292Z,1178.9
2022-11-16T14:22:35.903Z,1176.8
2022-11-16T14:24:19.615Z,1178.6
2022-11-16T14:26:03.336Z,1180.7
2022-11-16T14:27:47.080Z,1184.1
2022-11-16T14:29:30.698Z,1186.2
2022-11-16T14:31:14.400Z,1189.1
2022-11-16T14:32:58.090Z,1190.4
2022-11-16T14:34:41.800Z,1188.6
2022-11-16T14:36:25.523Z,1184
2022-11-16T14:38:09.198Z,1180.3
2022-11-16T14:39:52.930Z,1177
2022-11-16T14:41:36.602Z,1174.6
2022-11-16T14:43:20.297Z,1176.2
2022-11-16T14:45:04.084Z,1175.2
2022-11-16T14:46:47.696Z,1174.6
2022-11-16T14:48:31.399Z,1177.4
2022-11-16T14:50:15.116Z,1172.8
2022-11-16T14:51:58.829Z,1167.6
2022-11-16T14:53:42.510Z,1159.6
2022-11-16T14:55:26.225Z,1151.6
2022-11-16T14:57:10.021Z,1150.2
2022-11-16T14:58:53.640Z,1143.9
2022-11-16T15:00:37.336Z,1133
2022-11-16T15:02:21.035Z,1126.7
2022-11-16T15:04:04.750Z,1124.4
2022-11-16T15:05:48.442Z,1120.5
2022-11-16T15:07:32.142Z,1109.1
2022-11-16T15:09:15.862Z,1104.4
2022-11-16T15:10:59.555Z,1099.2
2022-11-16T15:12:43.250Z,1095.1
2022-11-16T15:14:27.012Z,1093.6
2022-11-16T15:16:10.662Z,1086.2
2022-11-16T15:17:54.377Z,1088.7
2022-11-16T15:19:38.053Z,1089.2
2022-11-16T15:21:21.763Z,1084.2
2022-11-16T15:23:05.468Z,1080.7
2022-11-16T15:24:49.186Z,1078.4
2022-11-16T15:26:32.872Z,1071.7
2022-11-16T15:28:16.584Z,1064.5
2022-11-16T15:30:00.288Z,1057.9
2022-11-16T15:31:44.005Z,1055
2022-11-16T15:33:27.687Z,1052.7
2022-11-16T15:35:11.390Z,1050.7
2022-11-16T15:36:55.113Z,1051
2022-11-16T15:38:38.816Z,1050.1
2022-11-16T15:40:22.541Z,1048.7
2022-11-16T15:42:06.280Z,1047.2
2022-11-16T15:43:49.926Z,1044.4
2022-11-16T15:45:33.632Z,1045.1
2022-11-16T15:47:17.328Z,1047.7
2022-11-16T15:49:01.019Z,1045.9
2022-11-16T15:50:44.718Z,1042.9
2022-11-16T15:52:28.424Z,1041
2022-11-16T15:54:12.168Z,1037.1
2022-11-16T15:55:55.820Z,1040.8
2022-11-16T15:57:39.540Z,1043.3
2022-11-16T15:59:23.239Z,1042.4
2022-11-16T16:01:06.931Z,1037.2
2022-11-16T16:02:50.628Z,1031.1
2022-11-16T16:04:34.353Z,1030.3
2022-11-16T16:06:18.031Z,1029.4
2022-11-16T16:08:01.742Z,1028.8
2022-11-16T16:09:45.438Z,1028.6
2022-11-16T16:11:29.132Z,1026.4
2022-11-16T16:13:12.850Z,1025.2
2022-11-16T16:14:56.543Z,1025.1
2022-11-16T16:16:40.258Z,1025.9
2022-11-16T16:18:23.943Z,1026.4
2022-11-16T16:20:07.643Z,1027.9
2022-11-16T16:21:51.349Z,1029.7
2022-11-16T16:23:35.040Z,1030.3
2022-11-16T16:25:18.745Z,1031.2
2022-11-16T16:27:02.451Z,1030.3
2022-11-16T16:28:46.154Z,1027.6
2022-11-16T16:30:29.844Z,1028
2022-11-16T16:32:13.552Z,1030.2
2022-11-16T16:33:57.260Z,1027.5
2022-11-16T16:35:40.969Z,1022.9
2022-11-16T16:37:24.659Z,1022.4
2022-11-16T16:39:08.369Z,1020.5
2022-11-16T16:40:52.122Z,1017
2022-11-16T16:42:35.777Z,1011.9
2022-11-16T16:44:19.462Z,1011.4
2022-11-16T16:46:03.214Z,1011.1
2022-11-16T16:47:46.862Z,1013.9
2022-11-16T16:49:30.573Z,1014.3
2022-11-16T16:51:14.314Z,1013.1
2022-11-16T16:52:57.981Z,1014.5
2022-11-16T16:54:41.729Z,1013.9
2022-11-16T16:56:25.412Z,1014.8
2022-11-16T16:58:09.079Z,1015
2022-11-16T16:59:52.786Z,1021.7
2022-11-16T17:01:36.607Z,1022.1
2022-11-16T17:03:20.197Z,1023.7
2022-11-16T17:05:04.130Z,1025.8
2022-11-16T17:06:47.611Z,1025.8
2022-11-16T17:08:31.302Z,1026.5
2022-11-16T17:10:15.031Z,1025.7
2022-11-16T17:11:58.827Z,1024.8
2022-11-16T17:13:42.473Z,1019.1
2022-11-16T17:15:26.222Z,1017.6
2022-11-16T17:17:09.816Z,1019.4
2022-11-16T17:18:53.531Z,1019
2022-11-16T17:20:37.198Z,1019.2
2022-11-16T17:22:20.947Z,1015.6
2022-11-16T17:24:04.614Z,1012.1
2022-11-16T17:25:48.326Z,1010
2022-11-16T17:27:32.038Z,1012.9
2022-11-16T17:29:15.777Z,1070.3
2022-11-16T17:30:59.426Z,1069
2022-11-16T17:32:43.135Z,1068.4
2022-11-16T17:34:26.898Z,1066.6
2022-11-16T17:36:10.521Z,1062.8
2022-11-16T17:37:54.268Z,1058
2022-11-16T17:39:37.934Z,1060.5
2022-11-16T17:41:21.646Z,1064.4
2022-11-16T17:43:05.356Z,1067.8
2022-11-16T17:44:49.032Z,1071.8
2022-11-16T17:46:32.754Z,1075.3
2022-11-16T17:48:16.443Z,1076.2
2022-11-16T17:50:00.145Z,1078.9
2022-11-16T17:51:43.856Z,1080.4
2022-11-16T17:53:27.535Z,1085
2022-11-16T17:55:11.267Z,1093.6
2022-11-16T17:56:54.993Z,1101.7
2022-11-16T17:58:38.649Z,1110.1
2022-11-16T18:00:22.364Z,1113.5
2022-11-16T18:02:06.169Z,1124.2
2022-11-16T18:03:49.782Z,1125.3
2022-11-16T18:05:33.484Z,1131.9
2022-11-16T18:07:17.147Z,1135
2022-11-16T18:09:00.920Z,1138.3
2022-11-16T18:10:44.643Z,1140.4
2022-11-16T18:12:28.330Z,1142.1
2022-11-16T18:14:12.022Z,1138.6
2022-11-16T18:15:55.685Z,1138.8
2022-11-16T18:17:39.388Z,1144.3
2022-11-16T18:19:23.104Z,1146.3
2022-11-16T18:21:06.786Z,1148.3
2022-11-16T18:22:50.496Z,1154.3
2022-11-16T18:24:34.201Z,1153.9
2022-11-16T18:26:17.896Z,1148.9
2022-11-16T18:28:01.642Z,1153.2
2022-11-16T18:29:45.343Z,1153.6
2022-11-16T18:31:29.008Z,1150.8
2022-11-16T18:33:12.748Z,1147.1
2022-11-16T18:34:56.471Z,1145.2
2022-11-16T18:36:40.122Z,1143.4
2022-11-16T18:38:23.804Z,1137.5
2022-11-16T18:40:07.627Z,1130.5
2022-11-16T18:41:51.222Z,1124.5
2022-11-16T18:43:34.916Z,1121.6
2022-11-16T18:45:18.629Z,1116.4
2022-11-16T18:47:02.376Z,1110
2022-11-16T18:48:46.049Z,1102.7
2022-11-16T18:50:29.743Z,1101.8
2022-11-16T18:52:13.449Z,1099.6
2022-11-16T18:53:57.211Z,1093.9
2022-11-16T18:55:40.850Z,1088.8
2022-11-16T18:57:24.580Z,1086
2022-11-16T18:59:08.336Z,1081.3
2022-11-16T19:00:52.093Z,1076.1
2022-11-16T19:02:35.664Z,1071.5
2022-11-16T19:04:19.368Z,1067.1
2022-11-16T19:06:03.059Z,1061.4
2022-11-16T19:07:46.765Z,1059.4
2022-11-16T19:09:30.492Z,1054.2
2022-11-16T19:11:14.203Z,1047.8
2022-11-16T19:12:57.883Z,1043.9
2022-11-16T19:14:41.651Z,1038.9
2022-11-16T19:16:25.412Z,1039.3
2022-11-16T19:18:08.991Z,1034
2022-11-16T19:19:52.753Z,1032.1
2022-11-16T19:21:36.528Z,1025.5
2022-11-16T19:23:20.109Z,1016.6
2022-11-16T19:25:03.828Z,1010.7
2022-11-16T19:26:47.665Z,1005.8
2022-11-16T19:28:31.214Z,1003
2022-11-16T19:30:14.972Z,1001.4
2022-11-16T19:31:58.765Z,996.1
2022-11-16T19:35:26.055Z,987
2022-11-16T19:37:09.751Z,983
2022-11-16T19:38:53.460Z,977
2022-11-16T19:40:37.144Z,973.2
2022-11-16T19:42:20.854Z,975
2022-11-16T19:44:04.590Z,975.5
2022-11-16T19:45:48.236Z,971.4
2022-11-16T19:47:31.944Z,966.4
2022-11-16T19:49:15.630Z,963.2
2022-11-16T19:50:59.403Z,955
2022-11-16T19:52:43.062Z,948.5
2022-11-16T19:54:26.799Z,945.8
2022-11-16T19:56:10.432Z,944.2
2022-11-16T19:57:54.140Z,939.3
2022-11-16T19:59:37.848Z,935.8
2022-11-16T20:03:05.260Z,926.7
2022-11-16T20:04:48.953Z,926.6
2022-11-16T20:06:32.659Z,926.7
2022-11-16T20:08:16.427Z,925.7
2022-11-16T20:10:00.082Z,925.3
2022-11-16T20:11:43.744Z,921.8
2022-11-16T20:13:27.467Z,917.4
2022-11-16T20:15:11.172Z,912.7
2022-11-16T20:16:54.846Z,906.8
2022-11-16T20:18:38.555Z,899.8
2022-11-16T20:20:22.282Z,895
2022-11-16T20:22:06.101Z,889.4
2022-11-16T20:23:49.655Z,885.4
2022-11-16T20:25:33.368Z,882.5
2022-11-16T20:27:17.076Z,875.3
2022-11-16T20:29:00.766Z,871
2022-11-16T20:30:44.463Z,867.4
2022-11-16T20:32:28.157Z,865.9
2022-11-16T20:34:11.867Z,863.1
2022-11-16T20:35:55.577Z,860.8
2022-11-16T20:37:39.272Z,858.2
2022-11-16T20:39:22.983Z,855.6
2022-11-16T20:41:06.770Z,850.1
2022-11-16T20:42:50.456Z,845.4
2022-11-16T20:44:34.087Z,840.6
2022-11-16T20:46:17.777Z,836.2
2022-11-16T20:48:01.496Z,835.8
2022-11-16T20:49:45.188Z,830.7
2022-11-16T20:51:28.870Z,828
2022-11-16T20:53:12.651Z,824.8
2022-11-16T20:54:56.292Z,826.5
2022-11-16T20:56:39.994Z,823.6
2022-11-16T20:58:23.713Z,818.3
2022-11-16T21:00:07.369Z,814.8
2022-11-16T21:01:51.091Z,811.1
2022-11-16T21:03:34.787Z,807.8
2022-11-16T21:05:18.492Z,807.6
2022-11-16T21:07:02.176Z,804.6
2022-11-16T21:08:45.895Z,799.5
2022-11-16T21:10:29.606Z,797.1
2022-11-16T21:12:13.269Z,794.7
2022-11-16T21:13:57.103Z,793.4
2022-11-16T21:15:40.698Z,790.3
2022-11-16T21:17:24.399Z,787.3
2022-11-16T21:19:08.146Z,812.5
2022-11-16T21:20:51.813Z,805
2022-11-16T21:22:35.681Z,796.7
2022-11-16T21:24:19.253Z,791.2
2022-11-16T21:26:02.967Z,788
2022-11-16T21:27:46.666Z,787.6
2022-11-16T21:29:30.319Z,785.1
2022-11-16T21:31:14.075Z,786.6
2022-11-16T21:32:57.711Z,786.6
2022-11-16T21:34:41.538Z,788.5
2022-11-16T21:36:25.168Z,789.3
2022-11-16T21:38:08.933Z,792.5
2022-11-16T21:39:52.533Z,796.2
2022-11-16T21:41:36.305Z,803.6
2022-11-16T21:43:19.905Z,810.6
2022-11-16T21:45:03.627Z,815.5
2022-11-16T21:46:47.298Z,820
2022-11-16T21:48:31.013Z,824.1
2022-11-16T21:50:14.721Z,828.5
2022-11-16T21:51:58.408Z,830.9
2022-11-16T21:53:42.137Z,834.3
2022-11-16T21:55:25.807Z,837.9
2022-11-16T21:57:09.508Z,840.1
2022-11-16T21:58:53.266Z,840.9
2022-11-16T22:00:36.908Z,840.8
2022-11-16T22:02:20.625Z,843.7
2022-11-16T22:04:04.364Z,845.4
2022-11-16T22:05:48.016Z,852.4
2022-11-16T22:07:31.717Z,854.3
2022-11-16T22:09:15.417Z,855.5
2022-11-16T22:10:59.142Z,857.7
2022-11-16T22:12:42.823Z,861
2022-11-16T22:14:26.518Z,861.7
2022-11-16T22:16:10.234Z,862.7
2022-11-16T22:17:53.938Z,867
2022-11-16T22:19:37.669Z,874.1
2022-11-16T22:21:21.318Z,874.3
2022-11-16T22:23:05.014Z,873.3
2022-11-16T22:24:48.732Z,877.8
2022-11-16T22:26:32.475Z,883.2
2022-11-16T22:28:16.119Z,887.3
2022-11-16T22:29:59.826Z,890.6
2022-11-16T22:31:43.544Z,890.4
2022-11-16T22:33:27.232Z,889.2
2022-11-16T22:35:10.924Z,893.3